Nottely Observed Data For Previous 48 Hours

Caption
Day and Hour Reservoir Elevation (behind dam)* Tailwater Elevation (below dam)* Average Hourly Discharge*
8/19/2018 2 AM EDT 1,775.23 1,611.59 1,434
8/19/2018 3 AM EDT 1,775.21 1,611.57 1,430
8/19/2018 4 AM EDT 1,775.18 1,611.59 1,435
8/19/2018 5 AM EDT 1,775.15 1,611.62 1,433
8/19/2018 6 AM EDT 1,775.14 1,611.59 1,435
8/19/2018 7 AM EDT 1,775.10 1,611.56 1,437
8/19/2018 8 AM EDT 1,775.08 1,611.57 1,433
8/19/2018 9 AM EDT 1,775.06 1,611.56 1,437
8/19/2018 10 AM EDT 1,775.03 1,611.57 1,431
8/19/2018 11 AM EDT 1,775.01 1,611.57 1,433
8/19/2018 12 PM EDT 1,774.98 1,611.57 1,435
8/19/2018 1 PM EDT 1,774.96 1,611.57 1,447
8/19/2018 2 PM EDT 1,774.94 1,611.61 1,441
8/19/2018 3 PM EDT 1,774.91 1,611.59 1,430
8/19/2018 4 PM EDT 1,774.88 1,611.59 1,422
8/19/2018 5 PM EDT 1,774.86 1,611.57 1,433
8/19/2018 6 PM EDT 1,774.83 1,611.55 1,428
8/19/2018 7 PM EDT 1,774.81 1,611.55 1,422
8/19/2018 8 PM EDT 1,774.79 1,611.56 1,420
8/19/2018 9 PM EDT 1,774.77 1,611.59 1,425
8/19/2018 10 PM EDT 1,774.74 1,611.52 1,417
8/19/2018 11 PM EDT 1,774.72 1,611.58 1,415
8/20/2018 12 AM EDT 1,774.69 1,611.52 1,419
8/20/2018 1 AM EDT 1,774.67 1,611.53 1,418
8/20/2018 2 AM EDT 1,774.64 1,611.58 1,424
8/20/2018 3 AM EDT 1,774.62 1,611.58 1,419
8/20/2018 4 AM EDT 1,774.59 1,611.56 1,423
8/20/2018 5 AM EDT 1,774.56 1,611.52 1,422
8/20/2018 6 AM EDT 1,774.55 1,611.54 1,414
8/20/2018 7 AM EDT 1,774.52 1,611.52 1,408
8/20/2018 8 AM EDT 1,774.50 1,611.51 1,407
8/20/2018 9 AM EDT 1,774.48 1,611.54 1,405
8/20/2018 10 AM EDT 1,774.45 1,611.50 1,406
8/20/2018 11 AM EDT 1,774.43 1,611.53 1,402
8/20/2018 12 PM EDT 1,774.40 1,611.53 1,407
8/20/2018 1 PM EDT 1,774.37 1,611.49 1,403
8/20/2018 2 PM EDT 1,774.35 1,611.52 1,401
8/20/2018 3 PM EDT 1,774.33 1,611.51 1,400
8/20/2018 4 PM EDT 1,774.30 1,611.49 1,402
8/20/2018 5 PM EDT 1,774.27 1,611.48 1,400
8/20/2018 6 PM EDT 1,774.26 1,611.52 1,403
8/20/2018 7 PM EDT 1,774.23 1,611.49 1,397
8/20/2018 8 PM EDT 1,774.21 1,611.55 1,400
8/20/2018 9 PM EDT 1,774.18 1,611.50 1,401
8/20/2018 10 PM EDT 1,774.16 1,611.57 1,406
8/20/2018 11 PM EDT 1,774.13 1,611.57 1,431
8/21/2018 12 AM EDT 1,774.10 1,611.61 1,435
8/21/2018 1 AM EDT 1,774.08 1,611.58 1,426
8/21/2018 2 AM EDT 1,774.08 1,607.18 128
8/21/2018 3 AM EDT 1,774.08 1,607.18 64
8/21/2018 4 AM EDT 1,774.09 1,607.18 64
8/21/2018 5 AM EDT 1,774.09 1,607.18 64

Elevations are in feet above sea level. Discharges are in cubic feet per second and are reported at the end of the hour.